Time;durP1;ratioP1;P1;durP2;ratioP2;P2;SDS_P1;SDS_P2;PMS_P1;PMS_P2;Temp;Humidity;BMP_temperature;BMP_pressure;BME280_temperature;BME280_humidity;BME280_pressure;Samples;Min_cycle;Max_cycle;Signal;HPM_P1;HPM_P2
2022/08/31 00:04:01;;;;;;;8.70;4.57;;;;;;;14.97;100.00;100887.78;4951851;28;20155;-69
2022/08/31 00:06:29;;;;;;;8.73;4.10;;;;;;;15.01;100.00;100902.53;4979722;28;20050;-69
2022/08/31 00:08:54;;;;;;;7.43;4.93;;;;;;;15.07;100.00;100914.59;4952171;28;20027;-70
2022/08/31 00:11:27;;;;;;;6.70;3.90;;;;;;;15.10;100.00;100925.84;4951397;28;20034;-69
2022/08/31 00:13:54;;;;;;;7.25;4.15;;;;;;;15.08;100.00;100925.06;4953289;28;20039;-69
2022/08/31 00:16:21;;;;;;;7.47;4.55;;;;;;;15.11;100.00;100922.22;4952508;28;20470;-69
2022/08/31 00:18:46;;;;;;;5.80;3.85;;;;;;;15.09;100.00;100910.88;4952674;28;20043;-69
2022/08/31 00:21:11;;;;;;;4.50;3.10;;;;;;;15.13;100.00;100909.78;4953326;28;20458;-69
2022/08/31 00:23:37;;;;;;;5.07;3.85;;;;;;;14.95;100.00;100889.69;4953254;29;20051;-69
2022/08/31 00:26:02;;;;;;;5.43;3.65;;;;;;;15.02;100.00;100892.81;4953107;28;20435;-69
2022/08/31 00:28:28;;;;;;;6.35;4.32;;;;;;;14.99;100.00;100893.00;4953072;28;20031;-69
2022/08/31 00:30:53;;;;;;;10.35;4.47;;;;;;;15.11;100.00;100916.94;4953068;28;20533;-69
2022/08/31 00:33:18;;;;;;;5.40;4.20;;;;;;;14.88;100.00;100883.06;4953135;28;20088;-69
2022/08/31 00:35:44;;;;;;;9.90;4.10;;;;;;;15.09;100.00;100905.59;4952817;28;20088;-69
2022/08/31 00:38:11;;;;;;;5.95;3.88;;;;;;;15.06;100.00;100908.44;4951142;28;20042;-69
2022/08/31 00:40:37;;;;;;;5.82;3.78;;;;;;;15.02;100.00;100900.75;4952026;28;20032;-69
2022/08/31 00:43:02;;;;;;;10.80;4.32;;;;;;;15.05;100.00;100906.72;4952727;28;20051;-70
2022/08/31 00:45:28;;;;;;;9.55;4.03;;;;;;;14.87;100.00;100891.13;4935794;28;20031;-69
2022/08/31 00:47:53;;;;;;;6.00;4.07;;;;;;;15.05;100.00;100912.00;4953012;28;20035;-70
2022/08/31 00:50:21;;;;;;;6.20;4.03;;;;;;;14.89;100.00;100889.22;4953129;29;20031;-70
2022/08/31 00:52:50;;;;;;;7.70;4.22;;;;;;;15.07;100.00;100920.69;4935080;28;20035;-70
2022/08/31 00:55:24;;;;;;;9.75;4.30;;;;;;;15.04;100.00;100920.06;4951968;28;20027;-69
2022/08/31 00:57:53;;;;;;;10.55;5.45;;;;;;;15.06;100.00;100928.75;4961012;28;20474;-68
2022/08/31 01:00:21;;;;;;;15.93;5.78;;;;;;;14.94;100.00;100918.91;4967382;28;20035;-69
2022/08/31 01:02:47;;;;;;;6.78;4.53;;;;;;;14.52;100.00;100869.38;4949661;28;20051;-69
2022/08/31 01:05:14;;;;;;;17.90;4.80;;;;;;;14.21;100.00;100834.13;4952530;28;20038;-69
2022/08/31 01:07:41;;;;;;;13.43;5.28;;;;;;;14.59;100.00;100920.97;4952683;28;20043;-69
2022/08/31 01:10:07;;;;;;;9.45;5.80;;;;;;;14.51;100.00;100925.84;4943931;28;20440;-69
2022/08/31 01:12:33;;;;;;;13.50;4.75;;;;;;;14.46;100.00;100917.34;4952223;28;20040;-69
2022/08/31 01:15:00;;;;;;;6.65;4.50;;;;;;;14.50;100.00;100929.47;4952407;28;20126;-70
2022/08/31 01:17:26;;;;;;;5.50;4.25;;;;;;;14.50;100.00;100911.78;4951251;28;20037;-70
2022/08/31 01:19:57;;;;;;;8.05;5.10;;;;;;;14.53;100.00;100916.06;4952179;28;20106;-70
2022/08/31 01:22:31;;;;;;;6.72;4.97;;;;;;;14.51;100.00;100902.91;4952475;28;20035;-70
2022/08/31 01:24:57;;;;;;;7.40;6.10;;;;;;;14.47;100.00;100897.88;4934279;29;20039;-70
2022/08/31 01:27:27;;;;;;;7.57;4.82;;;;;;;14.45;100.00;100895.34;4952266;28;20129;-70
2022/08/31 01:29:52;;;;;;;7.00;5.55;;;;;;;14.32;100.00;100878.47;4932878;28;20023;-69
2022/08/31 01:32:18;;;;;;;8.38;5.28;;;;;;;14.31;100.00;100887.31;4952269;28;20038;-69
2022/08/31 01:34:43;;;;;;;8.73;5.45;;;;;;;14.28;100.00;100888.34;4966912;28;20073;-70
2022/08/31 01:37:09;;;;;;;6.57;5.35;;;;;;;14.45;100.00;100916.50;4951683;28;20053;-70
2022/08/31 01:39:35;;;;;;;7.30;4.47;;;;;;;14.48;100.00;100926.03;4946565;28;20174;-71
2022/08/31 01:42:00;;;;;;;6.05;5.10;;;;;;;14.37;100.00;100918.72;4938550;29;20493;-70
2022/08/31 01:44:26;;;;;;;6.93;4.72;;;;;;;14.38;100.00;100920.44;4951121;28;20109;-70
2022/08/31 01:46:52;;;;;;;8.80;5.45;;;;;;;14.47;100.00;100935.75;4951312;29;20481;-70
2022/08/31 01:49:18;;;;;;;11.98;5.28;;;;;;;14.48;100.00;100926.03;4948117;28;20025;-71
2022/08/31 01:51:45;;;;;;;6.55;5.13;;;;;;;14.47;100.00;100919.03;4952209;28;20114;-71
2022/08/31 01:54:11;;;;;;;7.05;5.43;;;;;;;14.18;100.00;100873.09;4951640;28;20053;-71
2022/08/31 01:56:43;;;;;;;6.47;4.88;;;;;;;14.42;100.00;100927.25;4944307;29;20031;-71
2022/08/31 01:59:11;;;;;;;6.57;5.78;;;;;;;14.37;100.00;100917.84;4945188;28;20038;-71
2022/08/31 02:01:41;;;;;;;7.88;5.93;;;;;;;14.44;100.00;100938.59;4939518;29;20035;-71
2022/08/31 02:04:08;;;;;;;8.02;6.55;;;;;;;14.40;100.00;100933.56;4949378;28;20088;-71
2022/08/31 02:06:33;;;;;;;8.88;6.85;;;;;;;14.45;100.00;100947.38;4951427;28;20465;-70
2022/08/31 02:09:00;;;;;;;8.75;7.07;;;;;;;14.39;100.00;100947.72;4916533;28;20042;-69
2022/08/31 02:11:25;;;;;;;13.48;7.85;;;;;;;14.40;100.00;100934.41;4915230;28;20024;-69
2022/08/31 02:13:51;;;;;;;9.85;7.00;;;;;;;14.40;100.00;100933.56;4934637;28;20947;-69
2022/08/31 02:16:16;;;;;;;11.05;6.78;;;;;;;14.45;100.00;100935.00;4934705;29;20031;-70
2022/08/31 02:18:41;;;;;;;9.43;7.25;;;;;;;14.46;100.00;100935.88;4951210;28;20035;-69
2022/08/31 02:21:07;;;;;;;18.00;8.18;;;;;;;14.48;100.00;100934.81;4951648;28;20024;-69
2022/08/31 02:23:32;;;;;;;10.15;7.72;;;;;;;14.52;100.00;100943.44;4951318;28;20469;-69
2022/08/31 02:25:58;;;;;;;9.95;7.85;;;;;;;14.38;100.00;100925.72;4950944;28;20031;-69
2022/08/31 02:28:23;;;;;;;12.65;7.55;;;;;;;14.32;100.00;100921.63;5020190;28;20550;-70
2022/08/31 02:30:49;;;;;;;9.52;7.55;;;;;;;14.40;100.00;100941.50;4951400;28;20027;-69
2022/08/31 02:33:14;;;;;;;8.73;7.57;;;;;;;14.40;100.00;100941.50;4951292;28;20027;-69
2022/08/31 02:35:41;;;;;;;8.60;6.40;;;;;;;14.38;100.00;100948.66;4951506;28;20054;-69
2022/08/31 02:38:08;;;;;;;9.70;8.05;;;;;;;14.34;100.00;100945.34;4951503;28;20042;-69
2022/08/31 02:40:37;;;;;;;14.23;7.65;;;;;;;14.36;100.00;100948.75;4950703;28;20102;-68
2022/08/31 02:43:03;;;;;;;9.77;7.28;;;;;;;14.30;100.00;100944.63;4950670;28;20039;-68
2022/08/31 02:45:28;;;;;;;10.02;7.78;;;;;;;14.39;100.00;100947.72;4951208;29;20373;-69
2022/08/31 02:47:54;;;;;;;8.65;6.95;;;;;;;14.25;100.00;100920.25;4966233;28;20035;-69
2022/08/31 02:50:19;;;;;;;10.93;7.15;;;;;;;14.38;100.00;100943.38;4950976;28;20497;-70
2022/08/31 02:52:45;;;;;;;17.35;7.93;;;;;;;14.39;100.00;100942.44;4951068;28;20031;-70
2022/08/31 02:55:11;;;;;;;10.52;7.78;;;;;;;14.28;100.00;100929.78;4950923;29;20081;-68
2022/08/31 02:57:36;;;;;;;12.50;8.23;;;;;;;14.25;100.00;100927.31;4951007;28;20462;-71
2022/08/31 03:00:03;;;;;;;9.80;8.07;;;;;;;14.26;100.00;100931.69;4950663;28;20091;-73
2022/08/31 03:02:29;;;;;;;10.23;7.82;;;;;;;14.18;100.00;100918.91;4948745;28;20030;-72
2022/08/31 03:04:54;;;;;;;9.35;7.88;;;;;;;14.20;100.00;100935.50;4933685;28;20266;-71
2022/08/31 03:07:19;;;;;;;11.82;7.93;;;;;;;14.20;100.00;100937.28;4949680;29;20061;-71
2022/08/31 03:09:45;;;;;;;10.38;8.13;;;;;;;14.18;100.00;100934.75;4950294;28;20022;-70
2022/08/31 03:12:11;;;;;;;7.32;6.10;;;;;;;14.19;100.00;100947.00;4944129;29;20047;-70
2022/08/31 03:14:36;;;;;;;10.35;8.05;;;;;;;14.17;100.00;100935.69;4950580;28;20023;-70
2022/08/31 03:17:01;;;;;;;9.27;7.85;;;;;;;14.26;100.00;100944.91;4950302;28;20114;-71
2022/08/31 03:19:27;;;;;;;15.52;7.68;;;;;;;14.28;100.00;100940.38;4950853;28;20024;-71
2022/08/31 03:21:52;;;;;;;13.32;8.70;;;;;;;14.23;100.00;100927.41;4950508;28;20035;-71
2022/08/31 03:24:18;;;;;;;12.55;8.13;;;;;;;14.18;100.00;100923.31;5016135;28;20393;-71
2022/08/31 03:26:44;;;;;;;11.10;7.80;;;;;;;14.30;100.00;100943.75;4950649;28;20031;-71
2022/08/31 03:29:10;;;;;;;9.95;6.95;;;;;;;14.29;100.00;100942.09;4944319;28;20497;-71
2022/08/31 03:31:36;;;;;;;13.27;7.78;;;;;;;14.23;100.00;100932.69;4941768;29;20027;-71
2022/08/31 03:34:01;;;;;;;13.13;9.07;;;;;;;14.23;100.00;100937.97;4965352;28;20031;-71
2022/08/31 03:36:27;;;;;;;9.30;7.43;;;;;;;14.29;100.00;100942.94;4950040;28;20088;-71
2022/08/31 03:38:52;;;;;;;10.05;7.32;;;;;;;14.28;100.00;100941.22;4950159;28;20500;-71
2022/08/31 03:41:21;;;;;;;9.52;7.63;;;;;;;14.29;100.00;100950.88;4943220;28;20114;-71
2022/08/31 03:43:46;;;;;;;22.58;8.70;;;;;;;14.29;100.00;100945.59;4933792;28;20508;-71
2022/08/31 03:46:12;;;;;;;11.85;8.18;;;;;;;14.31;100.00;100951.63;4947512;28;20027;-71
2022/08/31 03:48:37;;;;;;;12.98;9.63;;;;;;;14.31;100.00;100953.41;5007977;28;20024;-71
2022/08/31 03:51:03;;;;;;;11.05;9.00;;;;;;;14.20;100.00;100922.28;4948971;28;20505;-72
2022/08/31 03:53:28;;;;;;;10.65;8.30;;;;;;;14.20;100.00;100926.72;4931052;28;20039;-71
2022/08/31 03:56:00;;;;;;;8.80;7.43;;;;;;;14.27;100.00;100943.94;4950296;28;20038;-71
2022/08/31 03:58:27;;;;;;;11.50;9.10;;;;;;;14.25;100.00;100941.41;4950501;28;20031;-71
2022/08/31 04:00:53;;;;;;;11.02;8.52;;;;;;;14.24;100.00;100942.34;4943270;28;20112;-70
2022/08/31 04:03:18;;;;;;;12.38;7.65;;;;;;;14.24;100.00;100939.69;4950486;28;20454;-71
2022/08/31 04:05:44;;;;;;;12.07;8.63;;;;;;;14.18;100.00;100933.91;4950351;28;20058;-70
2022/08/31 04:08:09;;;;;;;8.77;7.25;;;;;;;14.23;100.00;100940.63;4947350;28;20067;-69
2022/08/31 04:10:40;;;;;;;8.93;7.32;;;;;;;14.24;100.00;100939.69;4944872;28;20714;-69
2022/08/31 04:13:06;;;;;;;8.80;6.80;;;;;;;14.22;100.00;100951.28;4941810;28;20035;-69
2022/08/31 04:15:32;;;;;;;8.38;7.13;;;;;;;14.17;100.00;100932.19;4948444;29;20038;-69
2022/08/31 04:17:57;;;;;;;10.93;8.27;;;;;;;14.03;100.00;100919.75;4953203;28;20038;-69
2022/08/31 04:20:23;;;;;;;8.10;7.13;;;;;;;14.14;100.00;100925.28;4952744;28;20114;-69
2022/08/31 04:22:48;;;;;;;9.45;7.55;;;;;;;14.12;100.00;100921.91;4968248;28;20038;-69
2022/08/31 04:25:14;;;;;;;9.98;7.68;;;;;;;14.11;100.00;100921.97;4943486;28;20454;-71
2022/08/31 04:27:39;;;;;;;9.93;7.47;;;;;;;14.20;100.00;100942.59;4944727;28;20389;-71
2022/08/31 04:30:06;;;;;;;8.02;7.18;;;;;;;14.21;100.00;100941.66;4941697;28;20027;-70
2022/08/31 04:32:32;;;;;;;13.30;7.85;;;;;;;14.14;100.00;100929.72;4953405;29;20034;-71
2022/08/31 04:34:58;;;;;;;7.85;7.05;;;;;;;14.20;100.00;100932.88;4933461;28;20115;-69
2022/08/31 04:37:23;;;;;;;15.95;8.43;;;;;;;14.21;100.00;100931.94;4953366;28;20141;-71
2022/08/31 04:39:49;;;;;;;10.85;7.70;;;;;;;14.15;100.00;100919.06;4952472;28;20074;-71
2022/08/31 04:42:15;;;;;;;14.48;8.40;;;;;;;14.01;100.00;100895.22;4953043;28;20023;-71
2022/08/31 04:44:40;;;;;;;10.35;8.63;;;;;;;14.14;100.00;100912.06;4935562;29;20031;-71
2022/08/31 04:47:07;;;;;;;11.45;7.57;;;;;;;14.21;100.00;100916.06;5012094;28;20023;-71
2022/08/31 04:49:32;;;;;;;9.70;8.27;;;;;;;14.08;100.00;100896.56;4952874;28;20051;-71
2022/08/31 04:51:57;;;;;;;10.32;7.32;;;;;;;14.26;100.00;100929.03;4950044;28;20169;-71
2022/08/31 04:54:23;;;;;;;10.20;8.80;;;;;;;14.21;100.00;100924.00;4952755;28;20066;-72
2022/08/31 04:56:48;;;;;;;10.95;7.47;;;;;;;14.25;100.00;100925.53;4945736;28;20023;-72
2022/08/31 04:59:15;;;;;;;10.38;8.15;;;;;;;14.25;100.00;100922.91;4952423;28;20027;-72
2022/08/31 05:01:44;;;;;;;12.13;8.50;;;;;;;14.18;100.00;100908.31;4935873;28;20032;-73
2022/08/31 05:04:12;;;;;;;10.80;7.63;;;;;;;14.19;100.00;100920.56;4938411;28;20031;-71
2022/08/31 05:06:39;;;;;;;12.82;8.55;;;;;;;14.09;100.00;100895.59;4967220;28;20038;-71
2022/08/31 05:09:08;;;;;;;10.07;7.32;;;;;;;14.18;100.00;100912.75;4952169;28;20031;-72
2022/08/31 05:11:33;;;;;;;8.95;8.05;;;;;;;13.92;100.00;100871.09;4954132;28;20035;-74
2022/08/31 05:14:01;;;;;;;10.38;8.40;;;;;;;14.23;100.00;100924.75;4951432;28;20401;-73
2022/08/31 05:16:29;;;;;;;8.85;7.85;;;;;;;14.17;100.00;100922.47;4936202;28;20061;-74
2022/08/31 05:18:55;;;;;;;14.13;7.85;;;;;;;14.23;100.00;100937.97;4935836;29;20047;-73
2022/08/31 05:21:27;;;;;;;9.05;7.40;;;;;;;14.23;100.00;100942.41;4953649;28;20047;-73
2022/08/31 05:24:02;;;;;;;8.60;7.70;;;;;;;14.04;100.00;100902.97;4935213;28;20035;-75
2022/08/31 05:26:30;;;;;;;13.90;7.90;;;;;;;14.25;100.00;100940.53;4938563;28;20088;-72
2022/08/31 05:28:57;;;;;;;15.60;7.68;;;;;;;14.27;100.00;100938.66;4933839;29;20027;-73
2022/08/31 05:31:23;;;;;;;9.68;7.57;;;;;;;14.28;100.00;100940.38;4951368;28;20027;-73
2022/08/31 05:33:49;;;;;;;8.63;7.60;;;;;;;14.04;100.00;100908.25;4935161;28;20030;-72
2022/08/31 05:36:15;;;;;;;11.75;8.73;;;;;;;14.29;100.00;100942.94;4922382;28;20032;-73
2022/08/31 05:38:41;;;;;;;9.60;7.72;;;;;;;14.29;100.00;100937.66;4923898;28;20035;-73
2022/08/31 05:41:07;;;;;;;12.05;8.13;;;;;;;14.23;100.00;100930.03;4901043;28;21570;-73
2022/08/31 05:43:33;;;;;;;10.52;8.18;;;;;;;14.32;100.00;100942.75;4992843;28;20038;-73
2022/08/31 05:45:58;;;;;;;13.38;8.88;;;;;;;14.18;100.00;100918.91;4949401;28;20039;-73
2022/08/31 05:48:24;;;;;;;12.10;8.85;;;;;;;14.34;100.00;100945.34;4951120;28;20371;-72
2022/08/31 05:50:50;;;;;;;9.55;8.13;;;;;;;14.31;100.00;100935.75;4935196;28;20465;-72
2022/08/31 05:53:16;;;;;;;10.48;8.52;;;;;;;14.05;100.00;100896.75;4966144;28;20067;-71
2022/08/31 05:55:42;;;;;;;12.25;9.55;;;;;;;14.18;100.00;100907.47;4945304;29;20023;-72
2022/08/31 05:58:07;;;;;;;10.70;8.73;;;;;;;14.29;100.00;100935.00;4951892;29;20032;-72
2022/08/31 06:00:34;;;;;;;14.27;10.85;;;;;;;14.35;100.00;100951.47;4966821;28;20473;-71
2022/08/31 06:02:59;;;;;;;15.75;11.48;;;;;;;14.36;100.00;100947.91;4952017;28;20039;-71
2022/08/31 06:05:24;;;;;;;15.40;11.77;;;;;;;14.41;100.00;100954.63;4965777;28;20027;-71
2022/08/31 06:07:50;;;;;;;18.08;10.77;;;;;;;14.36;100.00;100951.41;4979067;28;20088;-71
2022/08/31 06:10:17;;;;;;;12.38;11.05;;;;;;;14.44;100.00;100961.53;4929929;28;20031;-71
2022/08/31 06:12:42;;;;;;;17.58;13.18;;;;;;;14.41;100.00;100956.41;4976048;28;20037;-71
2022/08/31 06:15:09;;;;;;;15.43;10.73;;;;;;;14.40;100.00;100949.44;4893718;28;20931;-71
2022/08/31 06:17:35;;;;;;;16.60;11.90;;;;;;;14.41;100.00;100953.78;4912013;28;20790;-71
2022/08/31 06:20:01;;;;;;;13.50;10.45;;;;;;;14.00;100.00;100888.22;4910101;28;20030;-71
2022/08/31 06:22:28;;;;;;;11.80;10.18;;;;;;;14.46;100.00;100972.88;4893398;28;20023;-71
2022/08/31 06:24:53;;;;;;;14.48;10.07;;;;;;;14.48;100.00;100976.28;4966721;28;20097;-72
2022/08/31 06:27:19;;;;;;;13.60;11.18;;;;;;;14.46;100.00;100975.53;4910715;28;20082;-70
2022/08/31 06:29:44;;;;;;;10.30;9.20;;;;;;;14.20;100.00;100932.88;4913055;28;20092;-71
2022/08/31 06:32:12;;;;;;;15.00;10.77;;;;;;;14.43;100.00;100981.00;4910300;28;20019;-71
2022/08/31 06:34:39;;;;;;;11.88;8.95;;;;;;;14.43;100.00;100975.72;4907739;29;20062;-71
2022/08/31 06:37:06;;;;;;;12.98;9.38;;;;;;;14.27;100.00;100960.66;4876581;28;20869;-72
2022/08/31 06:39:32;;;;;;;11.20;8.23;;;;;;;14.31;100.00;100966.63;4909699;29;20031;-71
2022/08/31 06:41:58;;;;;;;8.55;7.70;;;;;;;14.16;100.00;100936.63;4925838;28;20045;-72
2022/08/31 06:44:24;;;;;;;12.85;8.77;;;;;;;14.43;100.00;100984.47;4924228;28;20035;-72
2022/08/31 06:46:50;;;;;;;8.13;7.30;;;;;;;14.20;100.00;100943.44;4909017;28;20035;-72
2022/08/31 06:49:16;;;;;;;11.40;8.75;;;;;;;14.38;100.00;100968.03;4892561;28;20836;-72
2022/08/31 06:51:42;;;;;;;9.80;8.15;;;;;;;14.47;100.00;100982.50;4916858;28;20138;-72
2022/08/31 06:54:10;;;;;;;9.55;7.78;;;;;;;14.39;100.00;100971.53;4927408;28;20030;-71
2022/08/31 06:56:36;;;;;;;8.65;7.25;;;;;;;14.53;100.00;100993.56;4958237;28;20085;-71
2022/08/31 06:59:02;;;;;;;12.63;9.10;;;;;;;14.53;100.00;100992.75;4922696;28;20130;-72
2022/08/31 07:01:29;;;;;;;10.32;8.65;;;;;;;14.40;100.00;100966.13;4935435;28;20053;-72
2022/08/31 07:03:56;;;;;;;9.73;8.60;;;;;;;14.63;100.00;101007.16;4940218;28;20043;-72
2022/08/31 07:06:24;;;;;;;14.15;9.15;;;;;;;14.59;100.00;100998.53;4908824;28;20031;-69
2022/08/31 07:08:53;;;;;;;9.73;8.73;;;;;;;14.43;100.00;100959.84;4908599;28;20035;-69
2022/08/31 07:11:22;;;;;;;9.88;8.20;;;;;;;14.82;100.00;101010.44;4907449;28;20085;-72
2022/08/31 07:13:48;;;;;;;12.68;9.55;;;;;;;14.81;100.00;100998.16;4888484;29;20138;-70
2022/08/31 07:16:16;;;;;;;10.85;8.98;;;;;;;14.91;100.00;101012.53;4894708;28;20023;-70
2022/08/31 07:18:42;;;;;;;10.20;9.10;;;;;;;14.98;100.00;101013.03;4874433;28;20869;-71
2022/08/31 07:21:18;;;;;;;10.80;9.68;;;;;;;15.04;100.00;101020.66;4907363;28;20027;-71
2022/08/31 07:23:44;;;;;;;10.98;8.80;;;;;;;15.09;100.00;101024.72;4908457;28;20950;-69
2022/08/31 07:26:16;;;;;;;16.88;8.73;;;;;;;15.06;100.00;101013.44;4907334;28;20089;-69
2022/08/31 07:28:50;;;;;;;11.93;7.18;;;;;;;15.06;100.00;101011.66;4889341;28;20058;-68
2022/08/31 07:31:16;;;;;;;11.43;7.25;;;;;;;14.95;100.00;101006.13;4908039;28;20027;-69
2022/08/31 07:33:41;;;;;;;7.88;6.68;;;;;;;15.03;100.00;101030.38;4908861;28;20027;-69
2022/08/31 07:36:10;;;;;;;10.95;6.82;;;;;;;15.02;100.00;101026.00;4909263;28;20035;-69
2022/08/31 07:44:05;;;;;;;8.43;6.57;;;;;;;14.89;100.00;100997.72;4910233;28;20104;-69
2022/08/31 07:46:30;;;;;;;10.45;7.60;;;;;;;15.00;100.00;101022.63;4948436;28;20023;-69
2022/08/31 07:48:59;;;;;;;11.07;7.03;;;;;;;15.01;100.00;101026.94;4952991;29;20133;-69
2022/08/31 07:51:25;;;;;;;12.05;7.28;;;;;;;14.93;100.00;101015.13;4967764;28;20420;-70
2022/08/31 07:53:51;;;;;;;10.30;7.90;;;;;;;15.01;100.00;101031.38;4952548;28;20113;-70
2022/08/31 07:56:17;;;;;;;7.97;6.70;;;;;;;14.97;100.00;101028.06;4953528;28;20058;-70
2022/08/31 07:58:46;;;;;;;11.75;8.30;;;;;;;15.05;100.00;101033.78;4952250;28;20531;-69
2022/08/31 08:01:13;;;;;;;9.32;7.93;;;;;;;15.07;100.00;101031.88;4936768;28;20035;-70
2022/08/31 08:03:42;;;;;;;8.70;7.65;;;;;;;15.06;100.00;101038.13;4952066;28;20075;-70
2022/08/31 08:06:11;;;;;;;9.02;7.57;;;;;;;14.85;100.00;100997.03;4953656;28;20033;-69
2022/08/31 08:08:37;;;;;;;9.98;6.85;;;;;;;15.12;100.00;101045.72;4952661;28;20029;-70
2022/08/31 08:11:03;;;;;;;10.07;6.93;;;;;;;15.13;100.00;101047.44;4968648;28;20069;-69
2022/08/31 08:13:28;;;;;;;9.18;7.15;;;;;;;15.13;100.00;101044.78;4953362;28;20109;-70
2022/08/31 08:15:54;;;;;;;9.65;7.43;;;;;;;14.85;100.00;101004.97;4953730;28;20081;-69
2022/08/31 08:18:20;;;;;;;12.27;8.38;;;;;;;15.17;100.00;101053.38;4953091;28;20019;-69
2022/08/31 08:20:46;;;;;;;10.60;8.40;;;;;;;15.20;100.00;101059.38;4953467;28;20363;-69
2022/08/31 08:23:14;;;;;;;10.70;8.30;;;;;;;15.18;100.00;101049.78;4953307;28;20473;-69
2022/08/31 08:25:40;;;;;;;11.75;9.00;;;;;;;15.26;100.00;101058.13;4952314;28;20478;-69
2022/08/31 08:28:06;;;;;;;8.82;7.72;;;;;;;15.23;100.00;101053.88;4952492;28;20110;-69
2022/08/31 08:30:32;;;;;;;10.48;8.95;;;;;;;15.34;100.00;101056.72;4953122;28;20446;-69
2022/08/31 08:33:02;;;;;;;11.95;8.38;;;;;;;15.43;100.00;101062.44;4953364;29;20039;-68
2022/08/31 08:35:29;;;;;;;12.07;8.70;;;;;;;15.15;100.00;101008.47;4952527;28;20034;-69
2022/08/31 08:37:56;;;;;;;13.20;9.40;;;;;;;15.54;100.00;101057.38;4953298;28;20093;-69
2022/08/31 08:40:41;;;;;;;10.98;9.07;;;;;;;15.51;100.00;101044.34;4952530;28;20042;-68
2022/08/31 08:43:14;;;;;;;10.20;8.10;;;;;;;15.54;100.00;101049.44;4936240;29;20032;-68
2022/08/31 08:45:40;;;;;;;14.98;8.43;;;;;;;15.62;100.00;101058.63;4967609;28;20023;-68
2022/08/31 08:48:08;;;;;;;9.98;8.82;;;;;;;15.68;100.00;101060.06;4950578;28;20032;-68
2022/08/31 08:50:35;;;;;;;9.40;8.15;;;;;;;15.83;100.00;101062.63;4952049;28;20031;-68
2022/08/31 08:53:03;;;;;;;8.50;6.80;;;;;;;15.92;100.00;101058.53;4951956;28;20085;-69
2022/08/31 08:55:40;;;;;;;10.63;7.68;;;;;;;16.01;100.00;101052.69;4940111;28;20110;-68
2022/08/31 08:58:09;;;;;;;9.82;7.20;;;;;;;16.08;100.00;101048.72;4935286;29;20058;-69
2022/08/31 09:00:36;;;;;;;8.25;5.72;;;;;;;16.18;100.00;101062.25;4932844;29;20122;-68
2022/08/31 09:03:09;;;;;;;9.10;6.53;;;;;;;16.23;100.00;101057.47;4946404;28;20056;-69
2022/08/31 09:06:06;;;;;;;7.55;6.45;;;;;;;16.34;100.00;101065.63;4947212;28;20036;-68
2022/08/31 09:09:06;;;;;;;12.05;6.05;;;;;;;16.52;100.00;101058.31;4943060;29;20035;-68
2022/08/31 09:11:54;;;;;;;8.77;5.88;;;;;;;16.64;100.00;101061.03;4963321;28;20031;-68
2022/08/31 09:14:43;;;;;;;13.38;6.00;;;;;;;16.77;100.00;101059.28;4950359;28;20054;-68
2022/08/31 09:17:30;;;;;;;8.23;5.32;;;;;;;16.98;100.00;101062.34;4945422;29;20041;-68
2022/08/31 09:19:59;;;;;;;10.50;6.78;;;;;;;17.12;100.00;101054.31;4942807;29;20088;-68
2022/08/31 09:22:29;;;;;;;7.90;5.03;;;;;;;17.31;100.00;101064.53;4946392;28;20108;-68
2022/08/31 09:24:58;;;;;;;11.20;6.15;;;;;;;17.43;100.00;101066.38;4947035;29;20035;-69
2022/08/31 09:28:06;;;;;;;12.35;6.13;;;;;;;17.60;100.00;101062.63;4952327;28;20118;-68
2022/08/31 09:30:31;;;;;;;6.53;4.90;;;;;;;17.73;100.00;101066.97;4952842;28;20038;-68
2022/08/31 09:32:57;;;;;;;7.88;4.75;;;;;;;17.82;100.00;101066.34;4972455;28;20122;-69
2022/08/31 09:35:28;;;;;;;8.15;5.30;;;;;;;17.84;100.00;101052.94;4960470;28;20091;-68
2022/08/31 09:38:00;;;;;;;8.77;4.97;;;;;;;17.97;100.00;101060.91;4951684;28;20110;-68
2022/08/31 09:40:37;;;;;;;7.63;5.10;;;;;;;18.04;100.00;101059.53;4948676;29;20035;-69
2022/08/31 09:43:29;;;;;;;11.10;5.38;;;;;;;18.10;100.00;101059.94;4951933;28;20031;-69
2022/08/31 09:46:08;;;;;;;8.18;4.70;;;;;;;18.09;100.00;101062.69;4935230;28;20042;-69
2022/08/31 09:48:55;;;;;;;6.32;5.10;;;;;;;17.99;100.00;101066.94;4949502;28;20104;-69
2022/08/31 09:51:28;;;;;;;15.13;5.70;;;;;;;17.89;100.00;101066.75;4932633;28;20038;-69
2022/08/31 09:57:05;;;;;;;8.90;4.57;;;;;;;17.99;100.00;101054.50;4937485;28;20054;-69
2022/08/31 09:59:40;;;;;;;12.55;4.57;;;;;;;18.04;100.00;101065.69;4952043;28;20110;-68
2022/08/31 10:02:30;;;;;;;10.88;4.60;;;;;;;18.15;100.00;101071.09;5003559;28;20097;-69
2022/08/31 10:05:03;;;;;;;9.50;4.72;;;;;;;18.27;100.00;101069.38;4930626;28;20042;-68
2022/08/31 10:07:46;;;;;;;8.77;4.78;;;;;;;18.38;100.00;101067.63;5016923;28;20062;-68
2022/08/31 10:10:18;;;;;;;6.70;3.88;;;;;;;18.46;100.00;101076.88;4945083;28;20024;-68
2022/08/31 10:12:49;;;;;;;9.20;4.60;;;;;;;18.48;100.00;101069.66;4929164;28;20056;-69
2022/08/31 10:15:27;;;;;;;11.85;4.78;;;;;;;18.54;100.00;101074.56;4951286;28;20477;-69
2022/08/31 10:18:03;;;;;;;14.57;4.95;;;;;;;18.64;100.00;101070.25;4953770;28;20040;-68
2022/08/31 10:20:38;;;;;;;6.40;4.18;;;;;;;18.52;100.00;101040.03;4952140;28;20040;-68
2022/08/31 10:23:26;;;;;;;;;;;;;;;18.60;100.00;101069.63;4906049;28;20955;-69
2022/08/31 10:25:57;;;;;;;6.93;4.05;;;;;;;18.68;100.00;101071.75;4956411;28;20004;-69
2022/08/31 10:28:49;;;;;;;7.45;3.50;;;;;;;18.78;100.00;101070.09;4944117;28;20032;-68
2022/08/31 10:31:22;;;;;;;5.13;3.65;;;;;;;18.84;100.00;101061.66;4999259;28;20035;-69
2022/08/31 10:37:06;;;;;;;8.45;4.50;;;;;;;18.98;100.00;101063.31;4950735;29;20449;-69
2022/08/31 10:39:37;;;;;;;14.50;4.38;;;;;;;18.82;100.00;101005.84;4951423;28;20037;-68
2022/08/31 10:42:08;;;;;;;6.80;3.67;;;;;;;19.35;100.00;101063.09;4950114;29;20054;-68
2022/08/31 10:45:16;;;;;;;10.30;5.72;;;;;;;19.52;100.00;101055.66;4950766;28;20042;-68
2022/08/31 10:47:45;;;;;;;6.38;4.55;;;;;;;19.66;100.00;101052.78;4951231;28;20047;-68
2022/08/31 10:50:15;;;;;;;8.15;5.07;;;;;;;19.73;100.00;101057.53;4920765;28;20076;-68
2022/08/31 10:52:50;;;;;;;7.25;5.20;;;;;;;19.76;100.00;101061.75;4951683;28;20077;-69
2022/08/31 10:55:29;;;;;;;8.43;5.63;;;;;;;19.84;100.00;101057.50;5005327;28;20033;-69
2022/08/31 10:58:14;;;;;;;6.70;5.07;;;;;;;20.00;100.00;101065.19;5011444;28;20078;-68
2022/08/31 11:00:46;;;;;;;9.40;6.00;;;;;;;20.14;100.00;101061.41;4948299;28;20436;-68
2022/08/31 11:03:33;;;;;;;8.32;4.35;;;;;;;20.33;100.00;101065.19;4942800;28;20031;-68
2022/08/31 11:06:29;;;;;;;11.93;6.53;;;;;;;20.49;100.00;101063.94;4939395;28;20035;-68
2022/08/31 11:09:32;;;;;;;8.27;5.32;;;;;;;20.68;100.00;101056.16;4942912;28;20110;-68
2022/08/31 11:12:10;;;;;;;6.88;4.97;;;;;;;20.87;100.00;101056.34;4931010;28;20036;-68
2022/08/31 11:14:57;;;;;;;10.95;6.38;;;;;;;21.07;100.00;101052.84;4995909;28;20135;-67
2022/08/31 11:17:28;;;;;;;11.80;5.35;;;;;;;21.17;100.00;101045.81;4947065;28;20567;-68
2022/08/31 11:20:18;;;;;;;11.25;6.43;;;;;;;21.33;100.00;101037.31;4936788;28;20020;-67
2022/08/31 11:23:05;;;;;;;10.63;6.45;;;;;;;21.56;100.00;101044.25;4944059;28;20393;-68
2022/08/31 11:25:30;;;;;;;10.85;6.30;;;;;;;21.75;100.00;101035.47;4952420;28;20390;-68
2022/08/31 11:28:09;;;;;;;11.60;5.75;;;;;;;21.84;100.00;101021.28;4953183;28;20035;-68
2022/08/31 11:30:42;;;;;;;11.60;6.13;;;;;;;22.26;100.00;101035.44;4938819;28;20055;-68
2022/08/31 11:33:10;;;;;;;7.75;5.72;;;;;;;22.57;100.00;101036.25;4932116;28;20105;-68
2022/08/31 11:35:59;;;;;;;10.63;5.63;;;;;;;23.08;100.00;101028.00;4939066;28;20031;-67